Time;durP1;ratioP1;P1;durP2;ratioP2;P2;SDS_P1;SDS_P2;PMS_P1;PMS_P2;Temp;Humidity;BMP_temperature;BMP_pressure;BME280_temperature;BME280_humidity;BME280_pressure;Samples;Min_cycle;Max_cycle;Signal;HPM_P1;HPM_P2
2023/05/03 00:01:40;;;;;;;17.77;6.03;;;12.40;99.90;;;;;;5012178;28;20189;-70
2023/05/03 00:04:06;;;;;;;12.47;6.47;;;12.40;99.90;;;;;;5029730;28;20664;-70
2023/05/03 00:06:31;;;;;;;12.80;7.00;;;12.40;99.90;;;;;;5030095;28;20231;-70
2023/05/03 00:08:57;;;;;;;16.60;6.77;;;12.40;99.90;;;;;;5029927;28;20178;-70
2023/05/03 00:11:23;;;;;;;19.20;6.60;;;;;;;;;;5029201;28;20182;-70
2023/05/03 00:13:49;;;;;;;16.53;7.17;;;12.50;99.90;;;;;;5030285;28;20186;-71
2023/05/03 00:16:15;;;;;;;13.60;7.13;;;;;;;;;;5030956;28;20216;-71
2023/05/03 00:18:40;;;;;;;16.70;7.33;;;12.50;99.90;;;;;;5030495;28;20212;-71
2023/05/03 00:21:06;;;;;;;17.53;7.73;;;12.50;99.90;;;;;;5028824;28;20253;-71
2023/05/03 00:23:31;;;;;;;16.73;7.47;;;12.20;99.90;;;;;;5030187;28;20193;-71
2023/05/03 00:25:58;;;;;;;15.60;7.80;;;12.40;99.90;;;;;;5028604;28;20178;-69
2023/05/03 00:28:25;;;;;;;15.70;7.13;;;12.40;99.90;;;;;;5030260;28;20250;-70
2023/05/03 00:30:52;;;;;;;12.70;7.40;;;12.40;99.90;;;;;;5029602;28;20202;-70
2023/05/03 00:33:17;;;;;;;19.20;8.37;;;12.40;99.90;;;;;;5030464;28;20182;-70
2023/05/03 00:35:44;;;;;;;16.13;8.47;;;12.30;99.90;;;;;;5028776;28;20261;-70
2023/05/03 00:38:10;;;;;;;14.20;8.27;;;12.30;99.90;;;;;;5030038;28;20217;-69
2023/05/03 00:40:35;;;;;;;18.23;9.30;;;12.10;99.90;;;;;;5027667;28;20187;-69
2023/05/03 00:43:01;;;;;;;16.23;8.40;;;12.20;99.90;;;;;;5029809;28;20342;-69
2023/05/03 00:45:29;;;;;;;21.83;9.33;;;12.10;99.90;;;;;;5028030;28;20178;-69
2023/05/03 00:47:55;;;;;;;16.57;8.57;;;12.10;99.90;;;;;;5029022;28;20632;-70
2023/05/03 00:50:21;;;;;;;18.23;9.20;;;12.10;99.90;;;;;;5010813;28;20189;-70
2023/05/03 00:52:47;;;;;;;17.13;8.67;;;12.00;99.90;;;;;;5027692;28;20178;-69
2023/05/03 00:55:14;;;;;;;21.27;8.67;;;12.20;99.90;;;;;;5029367;28;20666;-69
2023/05/03 00:57:39;;;;;;;13.07;7.80;;;12.20;99.90;;;;;;5027783;28;20224;-71
2023/05/03 01:00:09;;;;;;;27.00;8.50;;;12.20;99.90;;;;;;5029246;28;20174;-69
2023/05/03 01:02:35;;;;;;;14.07;7.03;;;12.20;99.90;;;;;;5027468;28;20182;-69
2023/05/03 01:05:02;;;;;;;13.60;5.67;;;12.20;99.90;;;;;;5028593;28;20185;-70
2023/05/03 01:07:53;;;;;;;14.73;5.77;;;12.20;99.90;;;;;;5027577;28;20201;-70
2023/05/03 01:10:34;;;;;;;17.20;5.53;;;11.90;99.90;;;;;;4985975;28;20189;-70
2023/05/03 01:13:11;;;;;;;18.00;5.70;;;11.80;99.90;;;;;;5029038;28;20706;-71
2023/05/03 01:15:48;;;;;;;8.90;4.73;;;11.80;99.90;;;;;;5028544;28;20182;-71
2023/05/03 01:18:20;;;;;;;14.57;4.83;;;11.80;99.90;;;;;;5026200;28;20206;-71
2023/05/03 01:20:49;;;;;;;16.90;5.13;;;11.70;99.90;;;;;;5011020;28;20269;-70
2023/05/03 01:23:31;;;;;;;18.33;5.30;;;11.80;99.90;;;;;;5030094;28;20212;-71
2023/05/03 01:25:57;;;;;;;14.63;5.13;;;11.70;99.90;;;;;;5025183;28;20268;-71
2023/05/03 01:28:22;;;;;;;19.13;5.03;;;11.60;99.90;;;;;;5029786;28;20305;-72
2023/05/03 01:30:50;;;;;;;10.93;4.47;;;11.50;99.90;;;;;;5028216;28;20243;-70
2023/05/03 01:33:25;;;;;;;14.57;5.00;;;11.40;99.90;;;;;;5028240;28;20177;-70
2023/05/03 01:35:56;;;;;;;15.47;5.20;;;11.30;99.90;;;;;;5026335;28;20192;-69
2023/05/03 01:38:22;;;;;;;11.40;4.20;;;11.30;99.90;;;;;;5027828;28;20182;-70
2023/05/03 01:40:51;;;;;;;18.83;4.73;;;11.10;99.90;;;;;;5027485;28;20253;-70
2023/05/03 01:43:18;;;;;;;7.73;4.47;;;11.10;99.90;;;;;;5028578;28;20178;-69
2023/05/03 01:45:43;;;;;;;10.47;4.30;;;11.10;99.90;;;;;;5027999;28;20524;-69
2023/05/03 01:48:12;;;;;;;9.30;4.60;;;11.10;99.90;;;;;;5029094;28;20193;-70
2023/05/03 01:50:37;;;;;;;9.40;4.20;;;11.00;99.90;;;;;;5029642;28;20180;-70
2023/05/03 01:53:03;;;;;;;10.47;4.33;;;11.00;99.90;;;;;;5014368;28;20551;-69
2023/05/03 01:55:28;;;;;;;19.40;4.50;;;11.00;99.90;;;;;;5034178;28;20675;-69
2023/05/03 01:57:54;;;;;;;18.00;4.17;;;10.90;99.90;;;;;;5031937;28;20599;-70
2023/05/03 02:00:20;;;;;;;17.33;4.63;;;10.90;99.90;;;;;;5014735;28;20188;-70
2023/05/03 02:02:46;;;;;;;10.23;4.07;;;10.80;99.90;;;;;;5029659;28;20182;-70
2023/05/03 02:05:11;;;;;;;17.03;4.10;;;10.80;99.90;;;;;;5032561;28;20182;-68
2023/05/03 02:07:37;;;;;;;8.70;3.83;;;10.80;99.90;;;;;;5030211;28;20603;-69
2023/05/03 02:10:04;;;;;;;10.37;3.87;;;10.80;99.90;;;;;;5032404;28;20227;-69
2023/05/03 02:12:30;;;;;;;6.57;3.50;;;10.80;99.90;;;;;;5030340;28;20212;-70
2023/05/03 02:14:55;;;;;;;11.03;3.70;;;10.70;99.90;;;;;;5031132;28;20210;-69
2023/05/03 02:17:25;;;;;;;14.63;4.00;;;10.60;99.90;;;;;;5031938;28;20251;-70
2023/05/03 02:19:51;;;;;;;11.63;3.60;;;10.60;99.90;;;;;;5032741;28;20185;-69
2023/05/03 02:22:17;;;;;;;9.80;3.37;;;;;;;;;;5031952;28;20692;-70
2023/05/03 02:24:42;;;;;;;11.27;3.23;;;10.60;99.90;;;;;;5031821;28;20182;-69
2023/05/03 02:27:08;;;;;;;9.20;3.17;;;10.60;99.90;;;;;;5033422;28;20333;-70
2023/05/03 02:29:34;;;;;;;12.33;3.87;;;10.60;99.90;;;;;;5031440;28;20236;-70
2023/05/03 02:31:59;;;;;;;11.33;2.93;;;10.50;99.90;;;;;;5031514;28;20177;-70
2023/05/03 02:34:26;;;;;;;12.53;3.17;;;10.50;99.90;;;;;;5031190;28;20184;-70
2023/05/03 02:36:52;;;;;;;9.93;3.27;;;10.50;99.90;;;;;;5013974;28;20720;-70
2023/05/03 02:39:18;;;;;;;8.20;3.20;;;10.40;99.90;;;;;;5029641;28;20181;-70
2023/05/03 02:41:43;;;;;;;9.20;3.03;;;10.40;99.90;;;;;;5031502;28;20635;-70
2023/05/03 02:44:10;;;;;;;6.97;3.10;;;10.40;99.90;;;;;;5031284;28;20279;-70
2023/05/03 02:46:36;;;;;;;9.17;2.97;;;10.40;99.90;;;;;;5030834;28;20174;-70
2023/05/03 02:49:02;;;;;;;6.47;2.90;;;10.40;99.90;;;;;;5014240;28;20603;-69
2023/05/03 02:51:27;;;;;;;7.17;2.67;;;10.40;99.90;;;;;;5029096;28;20172;-70
2023/05/03 02:53:53;;;;;;;10.43;2.97;;;10.30;99.90;;;;;;5031686;28;20186;-70
2023/05/03 02:56:19;;;;;;;8.77;2.83;;;10.20;99.90;;;;;;5029678;28;20669;-70
2023/05/03 02:58:45;;;;;;;7.50;2.60;;;10.20;99.90;;;;;;5030969;28;20217;-70
2023/05/03 03:01:11;;;;;;;4.33;2.70;;;10.10;99.90;;;;;;5031046;28;20279;-70
2023/05/03 03:03:36;;;;;;;8.43;2.60;;;10.10;99.90;;;;;;5029665;28;20181;-70
2023/05/03 03:06:02;;;;;;;8.20;2.43;;;10.10;99.90;;;;;;5025362;28;20174;-70
2023/05/03 03:08:27;;;;;;;7.97;2.87;;;9.90;99.90;;;;;;5031557;28;20204;-70
2023/05/03 03:10:53;;;;;;;10.03;2.53;;;10.00;99.90;;;;;;5029998;28;20272;-70
2023/05/03 03:13:19;;;;;;;4.33;2.33;;;10.00;99.90;;;;;;5031795;28;20186;-69
2023/05/03 03:15:44;;;;;;;7.23;2.40;;;10.00;99.90;;;;;;5031240;28;20182;-70
2023/05/03 03:18:10;;;;;;;5.90;2.17;;;10.00;99.90;;;;;;5030117;28;20202;-69
2023/05/03 03:20:36;;;;;;;4.03;2.10;;;10.00;99.90;;;;;;5012441;28;20518;-70
2023/05/03 03:23:01;;;;;;;4.73;2.03;;;9.90;99.90;;;;;;5029307;28;20224;-70
2023/05/03 03:25:27;;;;;;;5.43;2.20;;;9.90;87.50;;;;;;5011284;28;20269;-69
2023/05/03 03:27:52;;;;;;;7.80;2.10;;;9.80;57.90;;;;;;5025538;28;20200;-69
2023/05/03 03:30:18;;;;;;;3.47;1.77;;;9.80;5.10;;;;;;5028808;28;20203;-70
2023/05/03 03:32:44;;;;;;;5.37;2.20;;;9.80;25.90;;;;;;5027401;28;20182;-70
2023/05/03 03:35:09;;;;;;;5.47;2.23;;;9.50;1.00;;;;;;5028781;28;20246;-70
2023/05/03 03:37:35;;;;;;;6.70;2.50;;;9.70;1.00;;;;;;5029468;28;20298;-70
2023/05/03 03:40:01;;;;;;;7.83;2.23;;;9.70;1.00;;;;;;5021358;28;20586;-70
2023/05/03 03:42:26;;;;;;;11.23;2.17;;;9.90;1.00;;;;;;5024262;28;20189;-71
2023/05/03 03:44:52;;;;;;;5.33;2.23;;;9.70;1.00;;;;;;5019601;28;20177;-71
2023/05/03 03:47:17;;;;;;;10.10;2.40;;;9.70;1.00;;;;;;5023859;28;20207;-69
2023/05/03 03:49:43;;;;;;;5.03;2.00;;;9.70;1.00;;;;;;5028382;28;20252;-69
2023/05/03 03:52:09;;;;;;;8.13;2.00;;;9.90;1.00;;;;;;5030534;28;20201;-70
2023/05/03 03:54:35;;;;;;;4.63;1.93;;;9.70;1.00;;;;;;5029143;28;20199;-68
2023/05/03 03:57:03;;;;;;;7.40;2.07;;;9.50;1.00;;;;;;5030290;28;20314;-68
2023/05/03 03:59:29;;;;;;;3.87;1.70;;;9.60;1.00;;;;;;5030538;28;20272;-69
2023/05/03 04:01:55;;;;;;;4.77;1.97;;;9.50;1.00;;;;;;5029757;28;20747;-69
2023/05/03 04:04:21;;;;;;;5.77;1.87;;;9.60;1.00;;;;;;5029765;28;20174;-70
2023/05/03 04:06:46;;;;;;;7.23;2.30;;;9.50;1.00;;;;;;5029130;28;20196;-69
2023/05/03 04:09:13;;;;;;;5.23;1.87;;;;;;;;;;5030002;28;20204;-69
2023/05/03 04:11:39;;;;;;;5.83;1.87;;;9.50;1.00;;;;;;5029816;28;20263;-69
2023/05/03 04:14:04;;;;;;;5.17;1.87;;;9.50;1.00;;;;;;5030051;28;20678;-69
2023/05/03 04:16:30;;;;;;;5.77;1.97;;;9.40;1.00;;;;;;5011310;28;20320;-69
2023/05/03 04:18:56;;;;;;;5.13;1.93;;;9.40;1.00;;;;;;5030569;28;20197;-69
2023/05/03 04:21:21;;;;;;;3.90;2.07;;;9.40;1.00;;;;;;5028976;28;20276;-69
2023/05/03 04:23:47;;;;;;;2.97;1.87;;;9.40;1.00;;;;;;5030104;28;20610;-70
2023/05/03 04:26:12;;;;;;;2.67;1.50;;;9.40;1.00;;;;;;5029239;28;20188;-69
2023/05/03 04:28:38;;;;;;;5.37;2.00;;;9.70;1.00;;;;;;5030970;28;20192;-69
2023/05/03 04:31:04;;;;;;;5.03;2.13;;;9.40;1.00;;;;;;5029571;28;20182;-69
2023/05/03 04:33:30;;;;;;;4.07;1.77;;;9.40;1.00;;;;;;5029682;28;20593;-69
2023/05/03 04:35:56;;;;;;;2.83;1.73;;;9.40;1.00;;;;;;5029484;28;20628;-69
2023/05/03 04:38:22;;;;;;;5.80;1.70;;;9.40;1.00;;;;;;5028138;28;20255;-69
2023/05/03 04:40:48;;;;;;;4.37;1.83;;;9.60;1.00;;;;;;5029182;28;20178;-68
2023/05/03 04:43:14;;;;;;;5.53;1.90;;;9.40;1.00;;;;;;5027517;28;20654;-68
2023/05/03 04:45:40;;;;;;;7.90;1.90;;;9.40;1.00;;;;;;5029776;28;20197;-68
2023/05/03 04:48:06;;;;;;;5.40;1.80;;;9.20;1.00;;;;;;5028245;28;20242;-68
2023/05/03 04:50:32;;;;;;;6.53;2.07;;;9.40;1.00;;;;;;5029987;28;20201;-68
2023/05/03 04:52:58;;;;;;;6.53;2.13;;;9.40;1.00;;;;;;5027417;28;20221;-68
2023/05/03 04:55:24;;;;;;;4.90;1.60;;;;;;;;;;5030297;28;20247;-70
2023/05/03 04:57:50;;;;;;;4.47;1.77;;;9.30;1.00;;;;;;5028417;28;20201;-71
2023/05/03 05:00:16;;;;;;;4.43;1.70;;;9.30;1.00;;;;;;5028095;28;21559;-70
2023/05/03 05:02:42;;;;;;;3.17;1.80;;;9.40;99.90;;;;;;5029356;28;20190;-70
2023/05/03 05:05:09;;;;;;;3.87;1.70;;;9.30;99.90;;;;;;5027476;28;20184;-70
2023/05/03 05:07:35;;;;;;;3.97;1.60;;;9.30;99.90;;;;;;5029718;28;20624;-70
2023/05/03 05:10:00;;;;;;;3.63;1.50;;;9.70;99.90;;;;;;5026967;28;20708;-70
2023/05/03 05:12:26;;;;;;;4.30;1.93;;;9.50;99.90;;;;;;5028777;28;20518;-70
2023/05/03 05:14:52;;;;;;;4.97;1.57;;;9.30;99.90;;;;;;5028009;28;20177;-69
2023/05/03 05:17:17;;;;;;;4.30;1.70;;;9.40;99.90;;;;;;5027416;28;20304;-69
2023/05/03 05:19:43;;;;;;;3.63;1.50;;;9.30;99.90;;;;;;5028268;28;20183;-69
2023/05/03 05:22:09;;;;;;;2.97;1.60;;;9.30;99.90;;;;;;5027257;28;20239;-69
2023/05/03 05:24:34;;;;;;;6.70;1.77;;;9.40;99.90;;;;;;5027647;28;20208;-69
2023/05/03 05:27:00;;;;;;;7.40;1.73;;;9.40;99.90;;;;;;5028324;28;20555;-69
2023/05/03 05:29:26;;;;;;;2.90;1.33;;;9.40;99.90;;;;;;5027922;28;20186;-69
2023/05/03 05:31:52;;;;;;;4.17;1.50;;;9.70;99.90;;;;;;5027280;28;20257;-69
2023/05/03 05:34:17;;;;;;;3.70;1.73;;;9.60;99.90;;;;;;5029242;28;20182;-69
2023/05/03 05:36:43;;;;;;;6.00;2.10;;;9.70;99.90;;;;;;5026846;28;20810;-70
2023/05/03 05:39:09;;;;;;;4.53;1.60;;;9.80;99.90;;;;;;5024651;28;20216;-69
2023/05/03 05:41:34;;;;;;;5.93;1.80;;;9.70;99.90;;;;;;5027096;28;20200;-70
2023/05/03 05:44:00;;;;;;;6.70;1.97;;;9.80;1.00;;;;;;5028319;28;20177;-69
2023/05/03 05:46:26;;;;;;;9.93;2.17;;;9.80;99.90;;;;;;5027423;28;20282;-69
2023/05/03 05:48:51;;;;;;;6.17;1.87;;;9.90;1.00;;;;;;5027828;28;20174;-69
2023/05/03 05:51:17;;;;;;;4.00;1.83;;;9.90;1.00;;;;;;5027135;28;20971;-69
2023/05/03 05:53:43;;;;;;;3.37;1.67;;;10.00;1.00;;;;;;5028966;28;20181;-69
2023/05/03 05:56:10;;;;;;;5.63;1.70;;;10.20;19.30;;;;;;5029176;28;20177;-69
2023/05/03 05:58:36;;;;;;;4.07;1.80;;;;;;;;;;5010876;28;20301;-68
2023/05/03 06:01:02;;;;;;;4.47;1.90;;;10.00;1.00;;;;;;5028940;28;20197;-69
2023/05/03 06:03:28;;;;;;;3.73;1.80;;;10.10;1.00;;;;;;5027348;28;20180;-69
2023/05/03 06:05:54;;;;;;;3.83;2.00;;;10.10;1.00;;;;;;5028596;28;20174;-70
2023/05/03 06:08:19;;;;;;;3.90;2.13;;;10.20;1.00;;;;;;5027564;28;20526;-70
2023/05/03 06:10:45;;;;;;;6.93;2.00;;;10.30;1.00;;;;;;5028372;28;20714;-71
2023/05/03 06:13:11;;;;;;;7.17;2.33;;;;;;;;;;5001759;28;20213;-71
2023/05/03 06:15:37;;;;;;;6.03;2.30;;;10.40;99.90;;;;;;5027750;28;20189;-71
2023/05/03 06:18:03;;;;;;;5.23;2.50;;;10.40;1.00;;;;;;5023738;28;20217;-70
2023/05/03 06:20:29;;;;;;;4.13;2.30;;;10.50;99.90;;;;;;5028772;28;20646;-70
2023/05/03 06:22:54;;;;;;;7.93;2.93;;;10.50;76.00;;;;;;5028853;28;20205;-71
2023/05/03 06:25:20;;;;;;;4.03;2.30;;;10.60;99.90;;;;;;5027443;28;20189;-70
2023/05/03 06:27:46;;;;;;;6.37;2.60;;;10.80;1.00;;;;;;5010019;28;20185;-70
2023/05/03 06:30:12;;;;;;;4.23;2.30;;;10.70;1.00;;;;;;5026667;28;20212;-70
2023/05/03 06:32:41;;;;;;;7.10;2.10;;;10.80;1.00;;;;;;5027485;28;20185;-77
2023/05/03 06:35:08;;;;;;;6.23;2.50;;;10.90;91.90;;;;;;5028435;28;20197;-71
2023/05/03 06:37:34;;;;;;;6.17;2.53;;;10.80;1.00;;;;;;5031046;28;20217;-69
2023/05/03 06:40:00;;;;;;;9.40;2.63;;;10.90;99.90;;;;;;5030011;28;20257;-69
2023/05/03 06:42:26;;;;;;;6.30;1.90;;;11.00;1.00;;;;;;5032349;28;20316;-69
2023/05/03 06:44:52;;;;;;;8.63;2.63;;;11.00;1.00;;;;;;5030945;28;20416;-69
2023/05/03 06:47:19;;;;;;;5.20;2.30;;;11.00;99.90;;;;;;5031489;28;20719;-68
2023/05/03 06:49:45;;;;;;;6.83;2.30;;;11.00;99.90;;;;;;5030223;28;20182;-68
2023/05/03 06:52:10;;;;;;;5.23;2.20;;;11.00;1.00;;;;;;5012217;28;20239;-67
2023/05/03 06:54:36;;;;;;;4.70;1.90;;;;;;;;;;5032823;28;20237;-69
2023/05/03 06:57:03;;;;;;;5.03;2.00;;;10.80;99.90;;;;;;5021082;28;20342;-69
2023/05/03 06:59:29;;;;;;;6.97;1.73;;;10.80;99.90;;;;;;5029173;28;20174;-70
2023/05/03 07:01:54;;;;;;;7.47;1.83;;;10.90;1.00;;;;;;5029484;28;20236;-69
2023/05/03 07:04:20;;;;;;;4.00;1.70;;;10.90;1.00;;;;;;5031762;28;20224;-70
2023/05/03 07:06:46;;;;;;;6.73;1.67;;;11.00;1.00;;;;;;5023714;28;20685;-67
2023/05/03 07:09:11;;;;;;;5.07;2.13;;;11.00;1.00;;;;;;5030795;28;20185;-70
2023/05/03 07:11:39;;;;;;;5.33;1.70;;;11.10;1.00;;;;;;5030218;28;20178;-70
2023/05/03 07:14:04;;;;;;;3.83;1.70;;;11.10;99.90;;;;;;5031696;28;20189;-71
2023/05/03 07:16:30;;;;;;;5.07;1.80;;;11.20;99.90;;;;;;5013498;28;20540;-63
2023/05/03 07:18:56;;;;;;;3.63;1.40;;;11.20;1.00;;;;;;5031545;28;20264;-69
2023/05/03 07:21:21;;;;;;;5.07;1.67;;;11.10;1.00;;;;;;5031432;28;20219;-70
2023/05/03 07:23:47;;;;;;;6.47;1.67;;;11.30;1.00;;;;;;5029926;28;20193;-68
2023/05/03 07:26:12;;;;;;;6.40;1.70;;;11.30;1.00;;;;;;5023679;28;20191;-68
2023/05/03 07:28:38;;;;;;;3.90;1.80;;;11.30;1.00;;;;;;5028558;28;20178;-69
2023/05/03 07:31:04;;;;;;;3.33;1.60;;;11.30;1.00;;;;;;5031407;28;20316;-68
2023/05/03 07:33:32;;;;;;;4.80;1.50;;;11.40;1.00;;;;;;5028977;28;20228;-68
2023/05/03 07:35:58;;;;;;;6.53;1.60;;;11.30;1.00;;;;;;5030674;28;20178;-68
2023/05/03 07:38:23;;;;;;;5.50;1.27;;;11.50;99.90;;;;;;5029506;28;20222;-68
2023/05/03 07:40:49;;;;;;;6.00;1.83;;;11.60;99.10;;;;;;5031667;28;20522;-70
2023/05/03 07:43:17;;;;;;;3.23;1.57;;;11.40;99.90;;;;;;5030528;28;20186;-71
2023/05/03 07:45:42;;;;;;;4.63;1.77;;;11.50;1.00;;;;;;5009395;28;20200;-77
2023/05/03 07:48:08;;;;;;;7.63;1.80;;;11.80;99.90;;;;;;5028318;28;20182;-72
2023/05/03 07:50:34;;;;;;;3.67;1.63;;;12.00;99.90;;;;;;5030381;28;20272;-73
2023/05/03 07:52:59;;;;;;;2.57;1.40;;;12.00;1.00;;;;;;5030271;28;20232;-70
2023/05/03 07:55:25;;;;;;;4.33;1.80;;;12.20;99.90;;;;;;5028012;28;20655;-70
2023/05/03 07:57:52;;;;;;;6.27;1.73;;;12.20;99.90;;;;;;5029470;28;20217;-70
2023/05/03 08:00:17;;;;;;;3.47;1.57;;;12.40;1.00;;;;;;5027168;28;20178;-71
2023/05/03 08:02:43;;;;;;;4.80;1.40;;;12.50;1.00;;;;;;5030684;28;20312;-70
2023/05/03 08:05:12;;;;;;;3.70;1.43;;;12.30;1.00;;;;;;5028670;28;20194;-70
2023/05/03 08:07:38;;;;;;;3.27;1.33;;;12.30;1.00;;;;;;5031321;28;20652;-70
2023/05/03 08:10:04;;;;;;;3.57;1.70;;;12.30;1.00;;;;;;5029307;28;20183;-70
2023/05/03 08:12:30;;;;;;;4.33;1.43;;;12.50;1.00;;;;;;5028155;28;20216;-70
2023/05/03 08:14:55;;;;;;;4.30;1.70;;;12.90;1.00;;;;;;5029019;28;20213;-70
2023/05/03 08:17:22;;;;;;;6.20;1.37;;;12.90;1.00;;;;;;5029360;28;20285;-71
2023/05/03 08:19:48;;;;;;;4.20;1.40;;;13.10;99.90;;;;;;5030142;28;20178;-71
2023/05/03 08:22:15;;;;;;;3.13;1.27;;;13.40;99.90;;;;;;4991941;28;20230;-71
2023/05/03 08:24:41;;;;;;;2.90;1.33;;;14.20;1.00;;;;;;4990370;28;20634;-71
2023/05/03 08:27:08;;;;;;;2.97;1.52;;;14.50;99.90;;;;;;4988281;28;20226;-70
2023/05/03 08:29:36;;;;;;;4.35;1.58;;;14.40;74.60;;;;;;4988228;28;20183;-71
2023/05/03 08:32:03;;;;;;;3.35;1.83;;;14.50;2.10;;;;;;4988528;28;20743;-70
2023/05/03 08:34:29;;;;;;;4.78;1.30;;;15.10;1.00;;;;;;4991156;28;20198;-67
2023/05/03 08:36:55;;;;;;;4.32;1.27;;;16.00;1.00;;;;;;4989513;28;20219;-68
2023/05/03 08:39:23;;;;;;;6.88;1.40;;;16.50;99.90;;;;;;4989414;28;20175;-69
2023/05/03 08:41:49;;;;;;;2.58;1.30;;;17.00;99.90;;;;;;4988736;28;20557;-68
2023/05/03 08:44:24;;;;;;;8.00;1.33;;;17.80;12.10;;;;;;4987874;28;20191;-68
2023/05/03 08:46:50;;;;;;;6.25;1.45;;;18.40;1.00;;;;;;4988754;28;20206;-70
2023/05/03 08:49:16;;;;;;;3.22;1.25;;;18.30;1.00;;;;;;4990729;28;20689;-69
2023/05/03 08:51:48;;;;;;;7.90;1.33;;;18.00;1.00;;;;;;4990246;28;20167;-69
2023/05/03 08:54:15;;;;;;;5.05;1.58;;;18.50;1.00;;;;;;4987646;28;20226;-69
2023/05/03 08:56:42;;;;;;;3.08;1.38;;;16.80;99.90;;;;;;4990303;28;20666;-68
2023/05/03 08:59:10;;;;;;;4.30;1.48;;;17.50;1.00;;;;;;4991129;28;20217;-69
2023/05/03 09:01:40;;;;;;;6.40;1.70;;;18.50;1.00;;;;;;4990209;28;20179;-69
2023/05/03 09:04:07;;;;;;;3.92;1.58;;;19.00;99.90;;;;;;4990836;28;20190;-68
2023/05/03 09:06:33;;;;;;;4.47;1.70;;;19.40;99.90;;;;;;4990534;28;20658;-70
2023/05/03 09:09:01;;;;;;;6.90;1.60;;;18.90;99.90;;;;;;4989196;28;20230;-68
2023/05/03 09:11:30;;;;;;;7.43;1.38;;;19.00;99.90;;;;;;4990009;28;20673;-69
2023/05/03 09:14:16;;;;;;;3.35;1.50;;;19.30;99.90;;;;;;4988495;28;20187;-69
2023/05/03 09:16:45;;;;;;;5.55;1.70;;;18.40;99.90;;;;;;4985852;28;20217;-71
2023/05/03 09:19:12;;;;;;;4.55;1.70;;;18.50;99.90;;;;;;4981726;28;20180;-71
2023/05/03 09:21:39;;;;;;;4.20;1.48;;;18.20;99.90;;;;;;5006831;28;20724;-71
2023/05/03 09:24:20;;;;;;;4.95;1.70;;;18.10;99.90;;;;;;5027428;28;20184;-71
2023/05/03 09:26:49;;;;;;;3.22;1.00;;;18.60;99.90;;;;;;5026579;28;20232;-69
2023/05/03 09:29:33;;;;;;;3.92;1.58;;;17.90;99.90;;;;;;5019199;28;20177;-70
2023/05/03 09:32:07;;;;;;;9.00;1.30;;;17.00;99.90;;;;;;5022711;28;20173;-69
2023/05/03 09:34:34;;;;;;;2.20;1.25;;;16.40;99.90;;;;;;5029206;28;20332;-70
2023/05/03 09:37:00;;;;;;;2.42;1.38;;;17.30;99.90;;;;;;5021119;28;20234;-71
2023/05/03 09:39:26;;;;;;;3.35;1.30;;;17.50;99.90;;;;;;5027696;28;20227;-71
2023/05/03 09:41:52;;;;;;;1.60;1.08;;;18.10;99.90;;;;;;5027255;28;20181;-71
2023/05/03 09:44:17;;;;;;;4.80;1.02;;;17.50;99.90;;;;;;5018299;28;20170;-70
2023/05/03 09:47:12;;;;;;;5.80;1.38;;;17.60;99.90;;;;;;5021716;28;20185;-70
2023/05/03 09:49:38;;;;;;;2.42;1.08;;;17.50;99.90;;;;;;4995826;28;20202;-70
2023/05/03 09:52:06;;;;;;;4.68;1.70;;;17.20;99.90;;;;;;5009346;28;20629;-70
2023/05/03 09:54:31;;;;;;;7.05;1.70;;;17.90;99.90;;;;;;5020733;28;20717;-70
2023/05/03 09:56:59;;;;;;;5.68;1.80;;;18.40;99.90;;;;;;5029478;28;20299;-70
2023/05/03 09:59:25;;;;;;;9.05;1.73;;;18.00;99.90;;;;;;5011475;28;20644;-70
2023/05/03 10:01:57;;;;;;;9.40;1.60;;;18.70;99.90;;;;;;5028746;28;20205;-70
2023/05/03 10:04:26;;;;;;;7.05;1.60;;;19.70;99.90;;;;;;5028742;28;20223;-70
2023/05/03 10:06:58;;;;;;;5.43;1.88;;;20.00;99.90;;;;;;5029927;28;20170;-70
2023/05/03 10:09:28;;;;;;;7.55;1.63;;;20.30;97.30;;;;;;5029579;28;20209;-71
2023/05/03 10:11:59;;;;;;;2.90;1.60;;;21.20;13.80;;;;;;5030612;28;20253;-71
2023/05/03 10:14:25;;;;;;;5.97;1.48;;;21.20;1.00;;;;;;5032156;28;20200;-72
2023/05/03 10:16:58;;;;;;;7.53;2.03;;;21.30;1.00;;;;;;5031111;28;20194;-71
2023/05/03 10:19:33;;;;;;;5.55;2.13;;;21.20;1.00;;;;;;5030996;28;20308;-71
2023/05/03 10:22:06;;;;;;;4.80;1.77;;;21.60;1.00;;;;;;4995463;28;1089858;-72
2023/05/03 10:24:34;;;;;;;5.43;2.10;;;21.80;1.00;;;;;;5033061;28;20220;-70
2023/05/03 10:27:00;;;;;;;4.70;1.88;;;21.50;1.00;;;;;;5029581;28;20174;-71
2023/05/03 10:29:35;;;;;;;6.88;2.15;;;21.40;1.00;;;;;;5019707;28;20178;-71
2023/05/03 10:32:24;;;;;;;6.43;1.80;;;21.90;1.00;;;;;;5014970;28;20190;-71
2023/05/03 10:35:08;;;;;;;3.83;1.88;;;22.30;1.00;;;;;;5032700;28;20205;-71
2023/05/03 10:37:35;;;;;;;4.18;2.40;;;22.10;1.00;;;;;;5031560;28;20219;-72
2023/05/03 10:40:12;;;;;;;8.32;2.28;;;22.40;1.00;;;;;;5031848;28;20185;-72
2023/05/03 10:42:41;;;;;;;8.88;2.42;;;21.80;1.00;;;;;;5015394;28;20227;-70
2023/05/03 10:45:08;;;;;;;5.18;2.22;;;22.40;1.00;;;;;;5033474;28;20697;-72
2023/05/03 10:47:34;;;;;;;4.65;2.20;;;22.40;1.00;;;;;;5032989;28;20663;-71
2023/05/03 10:50:15;;;;;;;5.97;1.90;;;23.10;1.00;;;;;;5033427;28;20296;-71
2023/05/03 10:52:40;;;;;;;4.47;1.77;;;23.20;1.00;;;;;;5033784;28;20170;-71
2023/05/03 10:55:15;;;;;;;3.63;1.85;;;23.30;1.00;;;;;;5033545;28;20248;-71
2023/05/03 10:57:42;;;;;;;5.18;2.10;;;23.20;1.00;;;;;;5033403;28;20217;-71
2023/05/03 11:00:29;;;;;;;4.88;2.40;;;22.90;1.00;;;;;;5033545;28;20189;-70
2023/05/03 11:03:29;;;;;;;6.88;2.22;;;21.60;99.90;;;;;;5033413;28;20231;-71
2023/05/03 11:05:56;;;;;;;5.50;2.15;;;22.50;1.00;;;;;;5013853;28;20188;-71
2023/05/03 11:08:24;;;;;;;5.40;1.98;;;23.70;1.00;;;;;;5014288;28;20703;-72
2023/05/03 11:10:57;;;;;;;5.82;2.28;;;24.20;1.00;;;;;;5025155;28;20200;-70
2023/05/03 11:13:22;;;;;;;7.47;2.55;;;25.00;1.00;;;;;;5016927;28;20244;-71
2023/05/03 11:15:48;;;;;;;5.53;2.42;;;25.30;99.90;;;;;;5019800;28;20650;-71
2023/05/03 11:18:14;;;;;;;6.20;2.35;;;25.20;99.90;;;;;;5012327;28;20218;-70
2023/05/03 11:20:40;;;;;;;6.82;2.40;;;24.20;99.90;;;;;;5020642;28;20181;-72
2023/05/03 11:23:06;;;;;;;7.65;2.30;;;23.60;99.90;;;;;;5011058;28;20292;-72
2023/05/03 11:25:32;;;;;;;6.70;2.33;;;22.70;99.90;;;;;;5012510;28;20206;-72
2023/05/03 11:28:02;;;;;;;6.15;2.30;;;22.50;99.90;;;;;;5030127;28;20265;-72
2023/05/03 11:30:28;;;;;;;5.53;2.10;;;22.60;99.90;;;;;;5023981;28;20273;-72
2023/05/03 11:32:55;;;;;;;6.70;2.38;;;23.10;99.90;;;;;;5031768;28;20177;-72
2023/05/03 11:35:24;;;;;;;5.28;1.98;;;23.40;99.90;;;;;;5031399;28;20166;-72
2023/05/03 11:37:50;;;;;;;4.30;1.77;;;23.90;99.90;;;;;;5031110;28;20213;-72
2023/05/03 11:40:16;;;;;;;9.05;1.85;;;24.10;99.90;;;;;;5031712;28;20174;-71
2023/05/03 11:42:54;;;;;;;6.10;2.22;;;24.40;99.90;;;;;;5031363;28;20170;-71
2023/05/03 11:45:22;;;;;;;3.70;2.03;;;23.40;99.90;;;;;;5031098;28;20177;-71
2023/05/03 11:47:48;;;;;;;2.58;1.48;;;23.50;99.90;;;;;;5031137;28;20174;-70
2023/05/03 11:50:14;;;;;;;4.88;1.90;;;23.90;99.90;;;;;;5021086;28;20193;-71
2023/05/03 11:52:40;;;;;;;7.28;2.05;;;23.60;99.90;;;;;;5019518;28;20227;-71
2023/05/03 11:55:07;;;;;;;4.47;1.80;;;23.80;99.90;;;;;;5027771;28;20245;-72
2023/05/03 11:57:34;;;;;;;8.55;2.30;;;25.00;99.90;;;;;;5013932;28;20202;-71
2023/05/03 12:00:16;;;;;;;9.15;2.35;;;25.40;99.90;;;;;;5019751;28;20179;-71
2023/05/03 12:02:42;;;;;;;7.68;1.90;;;25.00;99.90;;;;;;5012883;28;20209;-71
2023/05/03 12:05:08;;;;;;;6.32;2.65;;;25.20;99.90;;;;;;5011572;28;20309;-73
2023/05/03 12:07:36;;;;;;;5.93;2.50;;;24.00;99.90;;;;;;5011662;28;20194;-71
2023/05/03 12:10:18;;;;;;;5.80;2.35;;;24.80;99.90;;;;;;5030572;28;20249;-71
2023/05/03 12:12:58;;;;;;;5.38;2.65;;;25.20;99.90;;;;;;5027039;28;20200;-71
2023/05/03 12:15:36;;;;;;;11.00;2.40;;;25.00;93.00;;;;;;5031806;28;20177;-72
2023/05/03 12:18:07;;;;;;;6.63;2.90;;;25.40;99.90;;;;;;5020457;28;20208;-72
2023/05/03 12:20:35;;;;;;;7.50;2.40;;;24.90;83.10;;;;;;5031591;28;20667;-73
2023/05/03 12:23:02;;;;;;;3.47;2.28;;;25.80;99.90;;;;;;5030303;28;20213;-71
2023/05/03 12:25:29;;;;;;;5.78;2.65;;;25.80;99.90;;;;;;5030580;28;20173;-72
2023/05/03 12:27:57;;;;;;;11.93;2.80;;;25.30;99.90;;;;;;5030365;28;20625;-72
2023/05/03 12:30:22;;;;;;;5.95;2.70;;;25.20;99.90;;;;;;5030811;28;20217;-72
2023/05/03 12:32:48;;;;;;;10.93;2.60;;;25.00;63.50;;;;;;5031691;28;20197;-71
2023/05/03 12:35:15;;;;;;;6.82;2.70;;;25.80;72.60;;;;;;5031436;28;20173;-71
2023/05/03 12:37:40;;;;;;;7.15;3.30;;;25.40;68.00;;;;;;5031282;28;20213;-72
2023/05/03 12:40:07;;;;;;;6.50;3.25;;;24.70;12.40;;;;;;5030283;28;20575;-71
2023/05/03 12:42:33;;;;;;;5.40;3.22;;;25.00;23.00;;;;;;5012438;28;20260;-71
2023/05/03 12:44:59;;;;;;;7.63;3.28;;;24.80;47.30;;;;;;5013516;28;20656;-72
2023/05/03 12:47:25;;;;;;;6.63;3.33;;;24.70;16.00;;;;;;5031395;28;20448;-72
2023/05/03 12:49:51;;;;;;;8.18;3.55;;;24.50;1.00;;;;;;5030255;28;20174;-73
2023/05/03 12:52:17;;;;;;;7.88;3.13;;;24.60;38.10;;;;;;5030612;28;20174;-72
2023/05/03 12:54:45;;;;;;;10.93;3.28;;;25.40;47.50;;;;;;5030311;28;20652;-72